sensor_id;sensor_type;location;lat;lon;timestamp;P1;durP1;ratioP1;P2;durP2;ratioP2
15706;SDS011;7953;54.302;10.128;2022-09-09T00:01:48;31.00;;;25.90;;
15706;SDS011;7953;54.302;10.128;2022-09-09T00:04:21;29.80;;;25.27;;
15706;SDS011;7953;54.302;10.128;2022-09-09T00:06:55;32.57;;;26.70;;
15706;SDS011;7953;54.302;10.128;2022-09-09T00:09:32;29.43;;;25.33;;
15706;SDS011;7953;54.302;10.128;2022-09-09T00:12:10;30.93;;;25.63;;
15706;SDS011;7953;54.302;10.128;2022-09-09T00:14:41;30.90;;;26.13;;
15706;SDS011;7953;54.302;10.128;2022-09-09T00:17:20;30.53;;;26.53;;
15706;SDS011;7953;54.302;10.128;2022-09-09T00:19:59;31.50;;;25.93;;
15706;SDS011;7953;54.302;10.128;2022-09-09T00:22:31;30.77;;;27.53;;
15706;SDS011;7953;54.302;10.128;2022-09-09T00:25:02;31.60;;;28.20;;
15706;SDS011;7953;54.302;10.128;2022-09-09T00:27:37;31.80;;;26.73;;
15706;SDS011;7953;54.302;10.128;2022-09-09T00:30:14;33.07;;;27.77;;
15706;SDS011;7953;54.302;10.128;2022-09-09T00:32:44;30.60;;;27.33;;
15706;SDS011;7953;54.302;10.128;2022-09-09T00:35:15;31.30;;;26.63;;
15706;SDS011;7953;54.302;10.128;2022-09-09T00:37:44;32.40;;;28.53;;
15706;SDS011;7953;54.302;10.128;2022-09-09T00:40:18;29.53;;;25.37;;
15706;SDS011;7953;54.302;10.128;2022-09-09T00:42:52;29.70;;;25.57;;
15706;SDS011;7953;54.302;10.128;2022-09-09T00:45:35;32.23;;;26.73;;
15706;SDS011;7953;54.302;10.128;2022-09-09T00:48:14;30.53;;;27.07;;
15706;SDS011;7953;54.302;10.128;2022-09-09T00:50:44;30.43;;;26.97;;
15706;SDS011;7953;54.302;10.128;2022-09-09T00:53:21;32.40;;;27.10;;
15706;SDS011;7953;54.302;10.128;2022-09-09T00:56:00;30.53;;;26.50;;
15706;SDS011;7953;54.302;10.128;2022-09-09T00:58:34;30.17;;;25.50;;
15706;SDS011;7953;54.302;10.128;2022-09-09T01:01:02;31.23;;;24.80;;
15706;SDS011;7953;54.302;10.128;2022-09-09T01:03:36;30.10;;;26.77;;
15706;SDS011;7953;54.302;10.128;2022-09-09T01:06:14;26.87;;;23.70;;
15706;SDS011;7953;54.302;10.128;2022-09-09T01:08:59;26.80;;;23.90;;
15706;SDS011;7953;54.302;10.128;2022-09-09T01:11:36;27.87;;;23.10;;
15706;SDS011;7953;54.302;10.128;2022-09-09T01:14:22;30.83;;;25.13;;
15706;SDS011;7953;54.302;10.128;2022-09-09T01:16:58;28.67;;;23.97;;
15706;SDS011;7953;54.302;10.128;2022-09-09T01:19:40;27.10;;;24.00;;
15706;SDS011;7953;54.302;10.128;2022-09-09T01:22:19;28.33;;;23.97;;
15706;SDS011;7953;54.302;10.128;2022-09-09T01:25:01;27.07;;;23.80;;
15706;SDS011;7953;54.302;10.128;2022-09-09T01:27:40;28.93;;;24.23;;
15706;SDS011;7953;54.302;10.128;2022-09-09T01:30:10;28.10;;;24.30;;
15706;SDS011;7953;54.302;10.128;2022-09-09T01:32:41;29.47;;;24.03;;
15706;SDS011;7953;54.302;10.128;2022-09-09T01:35:11;30.77;;;24.70;;
15706;SDS011;7953;54.302;10.128;2022-09-09T01:37:48;28.60;;;24.30;;
15706;SDS011;7953;54.302;10.128;2022-09-09T01:40:15;26.07;;;22.67;;
15706;SDS011;7953;54.302;10.128;2022-09-09T01:42:44;27.60;;;24.47;;
15706;SDS011;7953;54.302;10.128;2022-09-09T01:45:11;26.80;;;23.13;;
15706;SDS011;7953;54.302;10.128;2022-09-09T01:47:38;26.20;;;23.10;;
15706;SDS011;7953;54.302;10.128;2022-09-09T01:50:05;29.93;;;23.57;;
15706;SDS011;7953;54.302;10.128;2022-09-09T01:52:36;27.17;;;23.27;;
15706;SDS011;7953;54.302;10.128;2022-09-09T01:55:05;28.03;;;24.43;;
15706;SDS011;7953;54.302;10.128;2022-09-09T01:57:33;31.83;;;24.53;;
15706;SDS011;7953;54.302;10.128;2022-09-09T02:00:07;27.03;;;22.93;;
15706;SDS011;7953;54.302;10.128;2022-09-09T02:02:38;27.83;;;23.70;;
15706;SDS011;7953;54.302;10.128;2022-09-09T02:05:16;28.10;;;23.37;;
15706;SDS011;7953;54.302;10.128;2022-09-09T02:07:49;29.43;;;23.27;;
15706;SDS011;7953;54.302;10.128;2022-09-09T02:10:21;28.50;;;21.77;;
15706;SDS011;7953;54.302;10.128;2022-09-09T02:12:52;25.70;;;20.77;;
15706;SDS011;7953;54.302;10.128;2022-09-09T02:15:30;25.53;;;21.77;;
15706;SDS011;7953;54.302;10.128;2022-09-09T02:18:02;26.83;;;22.83;;
15706;SDS011;7953;54.302;10.128;2022-09-09T02:20:34;25.47;;;21.90;;
15706;SDS011;7953;54.302;10.128;2022-09-09T02:23:03;26.90;;;23.23;;
15706;SDS011;7953;54.302;10.128;2022-09-09T02:25:32;27.37;;;22.10;;
15706;SDS011;7953;54.302;10.128;2022-09-09T02:28:02;28.23;;;22.93;;
15706;SDS011;7953;54.302;10.128;2022-09-09T02:30:32;26.90;;;22.53;;
15706;SDS011;7953;54.302;10.128;2022-09-09T02:33:01;26.53;;;22.80;;
15706;SDS011;7953;54.302;10.128;2022-09-09T02:35:31;29.63;;;23.90;;
15706;SDS011;7953;54.302;10.128;2022-09-09T02:38:02;27.47;;;22.97;;
15706;SDS011;7953;54.302;10.128;2022-09-09T02:40:33;32.63;;;25.30;;
15706;SDS011;7953;54.302;10.128;2022-09-09T02:43:00;27.63;;;23.50;;
15706;SDS011;7953;54.302;10.128;2022-09-09T02:45:29;33.00;;;24.23;;
15706;SDS011;7953;54.302;10.128;2022-09-09T02:48:03;31.90;;;24.23;;
15706;SDS011;7953;54.302;10.128;2022-09-09T02:50:39;34.23;;;25.63;;
15706;SDS011;7953;54.302;10.128;2022-09-09T02:53:12;34.07;;;26.33;;
15706;SDS011;7953;54.302;10.128;2022-09-09T02:55:45;38.60;;;26.27;;
15706;SDS011;7953;54.302;10.128;2022-09-09T02:58:14;36.20;;;26.80;;
15706;SDS011;7953;54.302;10.128;2022-09-09T03:00:45;39.07;;;27.43;;
15706;SDS011;7953;54.302;10.128;2022-09-09T03:03:13;34.87;;;26.80;;
15706;SDS011;7953;54.302;10.128;2022-09-09T03:05:41;34.73;;;27.50;;
15706;SDS011;7953;54.302;10.128;2022-09-09T03:08:08;39.90;;;30.03;;
15706;SDS011;7953;54.302;10.128;2022-09-09T03:10:35;44.07;;;32.17;;
15706;SDS011;7953;54.302;10.128;2022-09-09T03:13:03;46.63;;;32.63;;
15706;SDS011;7953;54.302;10.128;2022-09-09T03:15:30;47.93;;;33.63;;
15706;SDS011;7953;54.302;10.128;2022-09-09T03:17:59;50.50;;;32.70;;
15706;SDS011;7953;54.302;10.128;2022-09-09T03:20:27;47.63;;;31.80;;
15706;SDS011;7953;54.302;10.128;2022-09-09T03:22:55;52.07;;;33.80;;
15706;SDS011;7953;54.302;10.128;2022-09-09T03:25:23;50.53;;;34.23;;
15706;SDS011;7953;54.302;10.128;2022-09-09T03:27:50;53.23;;;34.47;;
15706;SDS011;7953;54.302;10.128;2022-09-09T03:30:19;52.27;;;34.57;;
15706;SDS011;7953;54.302;10.128;2022-09-09T03:32:46;58.63;;;35.73;;
15706;SDS011;7953;54.302;10.128;2022-09-09T03:35:14;52.70;;;35.17;;
15706;SDS011;7953;54.302;10.128;2022-09-09T03:37:42;55.63;;;36.10;;
15706;SDS011;7953;54.302;10.128;2022-09-09T03:40:09;64.23;;;36.97;;
15706;SDS011;7953;54.302;10.128;2022-09-09T03:42:36;59.83;;;36.83;;
15706;SDS011;7953;54.302;10.128;2022-09-09T03:45:04;67.83;;;38.43;;
15706;SDS011;7953;54.302;10.128;2022-09-09T03:47:31;59.27;;;36.17;;
15706;SDS011;7953;54.302;10.128;2022-09-09T03:49:58;55.90;;;35.57;;
15706;SDS011;7953;54.302;10.128;2022-09-09T03:52:26;57.53;;;35.77;;
15706;SDS011;7953;54.302;10.128;2022-09-09T03:54:54;54.70;;;33.70;;
15706;SDS011;7953;54.302;10.128;2022-09-09T03:57:22;53.23;;;33.10;;
15706;SDS011;7953;54.302;10.128;2022-09-09T03:59:48;52.50;;;34.23;;
15706;SDS011;7953;54.302;10.128;2022-09-09T04:02:15;50.43;;;31.87;;
15706;SDS011;7953;54.302;10.128;2022-09-09T04:04:42;48.47;;;30.80;;
15706;SDS011;7953;54.302;10.128;2022-09-09T04:07:09;49.00;;;31.00;;
15706;SDS011;7953;54.302;10.128;2022-09-09T04:09:38;49.10;;;31.07;;
15706;SDS011;7953;54.302;10.128;2022-09-09T04:12:05;48.93;;;29.73;;
15706;SDS011;7953;54.302;10.128;2022-09-09T04:14:32;50.77;;;30.87;;
15706;SDS011;7953;54.302;10.128;2022-09-09T04:16:59;47.67;;;30.47;;
15706;SDS011;7953;54.302;10.128;2022-09-09T04:19:26;54.27;;;32.73;;
15706;SDS011;7953;54.302;10.128;2022-09-09T04:21:53;46.67;;;30.03;;
15706;SDS011;7953;54.302;10.128;2022-09-09T04:24:20;50.27;;;30.70;;
15706;SDS011;7953;54.302;10.128;2022-09-09T04:26:48;54.70;;;31.87;;
15706;SDS011;7953;54.302;10.128;2022-09-09T04:29:15;50.40;;;31.87;;
15706;SDS011;7953;54.302;10.128;2022-09-09T04:31:42;51.43;;;30.27;;
15706;SDS011;7953;54.302;10.128;2022-09-09T04:34:09;50.57;;;30.73;;
15706;SDS011;7953;54.302;10.128;2022-09-09T04:36:36;44.43;;;29.20;;
15706;SDS011;7953;54.302;10.128;2022-09-09T04:39:06;48.17;;;28.97;;
15706;SDS011;7953;54.302;10.128;2022-09-09T04:41:33;49.53;;;30.73;;
15706;SDS011;7953;54.302;10.128;2022-09-09T04:44:02;45.23;;;29.83;;
15706;SDS011;7953;54.302;10.128;2022-09-09T04:46:30;47.40;;;29.77;;
15706;SDS011;7953;54.302;10.128;2022-09-09T04:48:59;46.43;;;30.07;;
15706;SDS011;7953;54.302;10.128;2022-09-09T04:51:26;46.60;;;30.20;;
15706;SDS011;7953;54.302;10.128;2022-09-09T04:53:53;48.33;;;31.17;;
15706;SDS011;7953;54.302;10.128;2022-09-09T04:56:20;46.57;;;29.07;;
15706;SDS011;7953;54.302;10.128;2022-09-09T04:58:47;49.60;;;31.37;;
15706;SDS011;7953;54.302;10.128;2022-09-09T05:01:16;46.50;;;30.03;;
15706;SDS011;7953;54.302;10.128;2022-09-09T05:03:44;49.90;;;29.70;;
15706;SDS011;7953;54.302;10.128;2022-09-09T05:06:12;46.57;;;30.17;;
15706;SDS011;7953;54.302;10.128;2022-09-09T05:08:41;44.57;;;29.33;;
15706;SDS011;7953;54.302;10.128;2022-09-09T05:11:15;46.27;;;30.70;;
15706;SDS011;7953;54.302;10.128;2022-09-09T05:13:43;46.10;;;30.60;;
15706;SDS011;7953;54.302;10.128;2022-09-09T05:16:11;48.50;;;32.33;;
15706;SDS011;7953;54.302;10.128;2022-09-09T05:18:39;51.97;;;32.87;;
15706;SDS011;7953;54.302;10.128;2022-09-09T05:21:07;44.03;;;31.67;;
15706;SDS011;7953;54.302;10.128;2022-09-09T05:23:35;49.60;;;32.97;;
15706;SDS011;7953;54.302;10.128;2022-09-09T05:26:02;52.10;;;32.90;;
15706;SDS011;7953;54.302;10.128;2022-09-09T05:28:30;49.73;;;32.53;;
15706;SDS011;7953;54.302;10.128;2022-09-09T05:30:57;52.20;;;33.07;;
15706;SDS011;7953;54.302;10.128;2022-09-09T05:33:26;47.93;;;32.53;;
15706;SDS011;7953;54.302;10.128;2022-09-09T05:35:56;46.30;;;32.00;;
15706;SDS011;7953;54.302;10.128;2022-09-09T05:38:24;46.27;;;31.40;;
15706;SDS011;7953;54.302;10.128;2022-09-09T05:40:51;42.03;;;29.23;;
15706;SDS011;7953;54.302;10.128;2022-09-09T05:43:19;44.13;;;29.80;;
15706;SDS011;7953;54.302;10.128;2022-09-09T05:45:46;46.67;;;29.83;;
15706;SDS011;7953;54.302;10.128;2022-09-09T05:48:16;40.33;;;29.23;;
15706;SDS011;7953;54.302;10.128;2022-09-09T05:51:10;44.77;;;30.97;;
15706;SDS011;7953;54.302;10.128;2022-09-09T05:53:48;46.63;;;30.70;;
15706;SDS011;7953;54.302;10.128;2022-09-09T05:56:24;49.23;;;31.87;;
15706;SDS011;7953;54.302;10.128;2022-09-09T05:58:58;45.73;;;30.17;;
15706;SDS011;7953;54.302;10.128;2022-09-09T06:01:26;43.40;;;29.87;;
15706;SDS011;7953;54.302;10.128;2022-09-09T06:03:59;48.67;;;31.97;;
15706;SDS011;7953;54.302;10.128;2022-09-09T06:06:31;46.10;;;30.87;;
15706;SDS011;7953;54.302;10.128;2022-09-09T06:09:02;53.67;;;34.47;;
15706;SDS011;7953;54.302;10.128;2022-09-09T06:11:31;49.73;;;32.37;;
15706;SDS011;7953;54.302;10.128;2022-09-09T06:14:01;51.30;;;32.67;;
15706;SDS011;7953;54.302;10.128;2022-09-09T06:16:29;48.53;;;30.77;;
15706;SDS011;7953;54.302;10.128;2022-09-09T06:18:57;55.07;;;31.87;;
15706;SDS011;7953;54.302;10.128;2022-09-09T06:21:25;51.83;;;32.77;;
15706;SDS011;7953;54.302;10.128;2022-09-09T06:23:54;53.73;;;31.30;;
15706;SDS011;7953;54.302;10.128;2022-09-09T06:26:22;53.13;;;31.63;;
15706;SDS011;7953;54.302;10.128;2022-09-09T06:28:51;52.13;;;32.47;;
15706;SDS011;7953;54.302;10.128;2022-09-09T06:31:20;53.90;;;31.67;;
15706;SDS011;7953;54.302;10.128;2022-09-09T06:33:48;55.80;;;33.27;;
15706;SDS011;7953;54.302;10.128;2022-09-09T06:36:17;56.27;;;33.27;;
15706;SDS011;7953;54.302;10.128;2022-09-09T06:38:45;53.70;;;31.17;;
15706;SDS011;7953;54.302;10.128;2022-09-09T06:41:14;53.97;;;31.67;;
15706;SDS011;7953;54.302;10.128;2022-09-09T06:43:43;55.83;;;33.17;;
15706;SDS011;7953;54.302;10.128;2022-09-09T06:46:11;54.33;;;31.40;;
15706;SDS011;7953;54.302;10.128;2022-09-09T06:48:39;56.47;;;33.90;;
15706;SDS011;7953;54.302;10.128;2022-09-09T06:51:07;53.63;;;32.17;;
15706;SDS011;7953;54.302;10.128;2022-09-09T06:53:36;54.87;;;33.43;;
15706;SDS011;7953;54.302;10.128;2022-09-09T06:56:16;52.93;;;30.73;;
15706;SDS011;7953;54.302;10.128;2022-09-09T06:58:46;58.43;;;34.17;;
15706;SDS011;7953;54.302;10.128;2022-09-09T07:01:14;52.20;;;32.03;;
15706;SDS011;7953;54.302;10.128;2022-09-09T07:03:42;51.07;;;30.97;;
15706;SDS011;7953;54.302;10.128;2022-09-09T07:06:13;52.53;;;33.10;;
15706;SDS011;7953;54.302;10.128;2022-09-09T07:08:42;53.20;;;33.40;;
15706;SDS011;7953;54.302;10.128;2022-09-09T07:11:09;51.67;;;31.80;;
15706;SDS011;7953;54.302;10.128;2022-09-09T07:13:38;53.07;;;32.17;;
15706;SDS011;7953;54.302;10.128;2022-09-09T07:16:08;53.47;;;33.87;;
15706;SDS011;7953;54.302;10.128;2022-09-09T07:18:35;52.40;;;32.67;;
15706;SDS011;7953;54.302;10.128;2022-09-09T07:21:03;55.30;;;32.80;;
15706;SDS011;7953;54.302;10.128;2022-09-09T07:23:31;49.67;;;32.40;;
15706;SDS011;7953;54.302;10.128;2022-09-09T07:26:00;50.87;;;31.40;;
15706;SDS011;7953;54.302;10.128;2022-09-09T07:28:27;44.10;;;30.50;;
15706;SDS011;7953;54.302;10.128;2022-09-09T07:30:57;41.93;;;29.30;;
15706;SDS011;7953;54.302;10.128;2022-09-09T07:33:26;40.83;;;28.17;;
15706;SDS011;7953;54.302;10.128;2022-09-09T07:36:01;37.30;;;27.97;;
15706;SDS011;7953;54.302;10.128;2022-09-09T07:38:29;37.60;;;27.83;;
15706;SDS011;7953;54.302;10.128;2022-09-09T07:41:02;36.77;;;26.57;;
15706;SDS011;7953;54.302;10.128;2022-09-09T07:43:30;40.80;;;29.47;;
15706;SDS011;7953;54.302;10.128;2022-09-09T07:45:59;44.27;;;30.40;;
15706;SDS011;7953;54.302;10.128;2022-09-09T07:48:27;41.20;;;29.70;;
15706;SDS011;7953;54.302;10.128;2022-09-09T07:51:02;43.97;;;30.17;;
15706;SDS011;7953;54.302;10.128;2022-09-09T07:53:36;41.63;;;28.50;;
15706;SDS011;7953;54.302;10.128;2022-09-09T07:56:04;39.20;;;28.53;;
15706;SDS011;7953;54.302;10.128;2022-09-09T07:58:34;41.83;;;29.37;;
15706;SDS011;7953;54.302;10.128;2022-09-09T08:01:09;36.33;;;27.43;;
15706;SDS011;7953;54.302;10.128;2022-09-09T08:03:38;36.17;;;27.90;;
15706;SDS011;7953;54.302;10.128;2022-09-09T08:06:06;35.20;;;26.13;;
15706;SDS011;7953;54.302;10.128;2022-09-09T08:08:34;34.83;;;26.17;;
15706;SDS011;7953;54.302;10.128;2022-09-09T08:11:04;37.03;;;26.23;;
15706;SDS011;7953;54.302;10.128;2022-09-09T08:13:32;33.63;;;25.13;;
15706;SDS011;7953;54.302;10.128;2022-09-09T08:16:08;33.97;;;25.07;;
15706;SDS011;7953;54.302;10.128;2022-09-09T08:18:36;30.40;;;23.37;;
15706;SDS011;7953;54.302;10.128;2022-09-09T08:21:04;31.00;;;24.33;;
15706;SDS011;7953;54.302;10.128;2022-09-09T08:23:33;30.60;;;23.53;;
15706;SDS011;7953;54.302;10.128;2022-09-09T08:26:04;31.87;;;23.43;;
15706;SDS011;7953;54.302;10.128;2022-09-09T08:28:34;28.33;;;22.83;;
15706;SDS011;7953;54.302;10.128;2022-09-09T08:31:09;25.23;;;20.93;;
15706;SDS011;7953;54.302;10.128;2022-09-09T08:33:38;28.53;;;21.40;;
15706;SDS011;7953;54.302;10.128;2022-09-09T08:36:08;27.67;;;21.87;;
15706;SDS011;7953;54.302;10.128;2022-09-09T08:38:36;28.73;;;21.90;;
15706;SDS011;7953;54.302;10.128;2022-09-09T08:41:07;26.23;;;20.43;;
15706;SDS011;7953;54.302;10.128;2022-09-09T08:43:59;25.33;;;19.90;;
15706;SDS011;7953;54.302;10.128;2022-09-09T08:46:32;26.43;;;21.17;;
15706;SDS011;7953;54.302;10.128;2022-09-09T08:49:13;25.07;;;20.63;;
15706;SDS011;7953;54.302;10.128;2022-09-09T08:51:56;26.33;;;20.50;;
15706;SDS011;7953;54.302;10.128;2022-09-09T08:54:23;25.47;;;20.67;;
15706;SDS011;7953;54.302;10.128;2022-09-09T08:56:53;22.37;;;19.87;;
15706;SDS011;7953;54.302;10.128;2022-09-09T08:59:21;23.23;;;19.43;;
15706;SDS011;7953;54.302;10.128;2022-09-09T09:01:52;23.37;;;19.37;;
15706;SDS011;7953;54.302;10.128;2022-09-09T09:07:23;25.63;;;22.40;;
15706;SDS011;7953;54.302;10.128;2022-09-09T09:09:57;25.73;;;21.00;;
15706;SDS011;7953;54.302;10.128;2022-09-09T09:12:31;23.37;;;20.67;;
15706;SDS011;7953;54.302;10.128;2022-09-09T09:15:05;25.10;;;22.50;;
15706;SDS011;7953;54.302;10.128;2022-09-09T09:17:43;22.73;;;20.40;;
15706;SDS011;7953;54.302;10.128;2022-09-09T09:20:11;24.27;;;21.60;;
15706;SDS011;7953;54.302;10.128;2022-09-09T09:22:42;23.30;;;21.13;;
15706;SDS011;7953;54.302;10.128;2022-09-09T09:25:15;22.93;;;20.53;;
15706;SDS011;7953;54.302;10.128;2022-09-09T09:27:46;21.73;;;19.53;;
15706;SDS011;7953;54.302;10.128;2022-09-09T09:30:20;23.67;;;21.10;;
15706;SDS011;7953;54.302;10.128;2022-09-09T09:32:51;21.67;;;19.57;;
15706;SDS011;7953;54.302;10.128;2022-09-09T09:35:20;22.97;;;20.70;;
15706;SDS011;7953;54.302;10.128;2022-09-09T09:37:47;23.40;;;20.93;;
15706;SDS011;7953;54.302;10.128;2022-09-09T09:40:15;22.30;;;20.33;;
15706;SDS011;7953;54.302;10.128;2022-09-09T09:42:51;22.40;;;20.30;;
15706;SDS011;7953;54.302;10.128;2022-09-09T09:45:27;21.00;;;18.60;;
15706;SDS011;7953;54.302;10.128;2022-09-09T09:48:02;22.43;;;20.37;;
15706;SDS011;7953;54.302;10.128;2022-09-09T09:50:31;19.20;;;17.23;;
15706;SDS011;7953;54.302;10.128;2022-09-09T09:53:00;17.93;;;16.23;;
15706;SDS011;7953;54.302;10.128;2022-09-09T09:55:29;17.50;;;15.90;;
15706;SDS011;7953;54.302;10.128;2022-09-09T09:58:02;17.47;;;15.80;;
15706;SDS011;7953;54.302;10.128;2022-09-09T10:00:29;15.37;;;14.00;;
15706;SDS011;7953;54.302;10.128;2022-09-09T10:02:59;15.40;;;14.00;;
15706;SDS011;7953;54.302;10.128;2022-09-09T10:05:28;15.47;;;14.03;;
15706;SDS011;7953;54.302;10.128;2022-09-09T10:08:00;13.53;;;12.17;;
15706;SDS011;7953;54.302;10.128;2022-09-09T10:10:33;16.90;;;13.87;;
15706;SDS011;7953;54.302;10.128;2022-09-09T10:13:11;13.70;;;12.40;;
15706;SDS011;7953;54.302;10.128;2022-09-09T10:15:46;13.67;;;11.90;;
15706;SDS011;7953;54.302;10.128;2022-09-09T10:18:25;13.77;;;12.60;;
15706;SDS011;7953;54.302;10.128;2022-09-09T10:21:08;14.73;;;13.23;;
15706;SDS011;7953;54.302;10.128;2022-09-09T10:23:55;13.17;;;11.97;;
15706;SDS011;7953;54.302;10.128;2022-09-09T10:26:41;11.63;;;10.63;;
15706;SDS011;7953;54.302;10.128;2022-09-09T10:29:21;11.43;;;10.43;;
15706;SDS011;7953;54.302;10.128;2022-09-09T10:32:01;8.87;;;8.07;;
15706;SDS011;7953;54.302;10.128;2022-09-09T10:34:49;8.50;;;7.70;;
15706;SDS011;7953;54.302;10.128;2022-09-09T10:37:27;8.67;;;7.73;;
15706;SDS011;7953;54.302;10.128;2022-09-09T10:40:05;6.87;;;6.27;;
15706;SDS011;7953;54.302;10.128;2022-09-09T10:42:45;5.50;;;5.10;;
15706;SDS011;7953;54.302;10.128;2022-09-09T10:45:15;5.50;;;5.00;;
15706;SDS011;7953;54.302;10.128;2022-09-09T10:47:53;4.73;;;4.30;;
15706;SDS011;7953;54.302;10.128;2022-09-09T10:53:22;4.53;;;3.20;;
15706;SDS011;7953;54.302;10.128;2022-09-09T10:56:01;3.90;;;3.50;;
15706;SDS011;7953;54.302;10.128;2022-09-09T10:58:33;3.67;;;3.20;;
15706;SDS011;7953;54.302;10.128;2022-09-09T11:01:06;3.07;;;2.73;;
15706;SDS011;7953;54.302;10.128;2022-09-09T11:03:41;4.33;;;3.60;;
15706;SDS011;7953;54.302;10.128;2022-09-09T11:06:10;3.60;;;3.30;;
15706;SDS011;7953;54.302;10.128;2022-09-09T11:08:43;3.90;;;2.97;;
15706;SDS011;7953;54.302;10.128;2022-09-09T11:11:13;5.40;;;3.20;;
15706;SDS011;7953;54.302;10.128;2022-09-09T11:13:45;4.10;;;3.63;;
15706;SDS011;7953;54.302;10.128;2022-09-09T11:16:21;3.70;;;3.40;;
15706;SDS011;7953;54.302;10.128;2022-09-09T11:18:54;5.20;;;2.87;;
15706;SDS011;7953;54.302;10.128;2022-09-09T11:21:25;5.30;;;3.07;;
15706;SDS011;7953;54.302;10.128;2022-09-09T11:23:57;3.10;;;2.50;;
15706;SDS011;7953;54.302;10.128;2022-09-09T11:26:29;3.10;;;1.90;;
15706;SDS011;7953;54.302;10.128;2022-09-09T11:29:03;2.77;;;1.77;;
15706;SDS011;7953;54.302;10.128;2022-09-09T11:31:51;2.50;;;1.77;;
15706;SDS011;7953;54.302;10.128;2022-09-09T11:34:30;1.53;;;1.43;;
15706;SDS011;7953;54.302;10.128;2022-09-09T11:37:08;2.47;;;1.40;;
15706;SDS011;7953;54.302;10.128;2022-09-09T11:40:14;3.40;;;1.30;;
15706;SDS011;7953;54.302;10.128;2022-09-09T11:42:44;2.10;;;1.33;;
15706;SDS011;7953;54.302;10.128;2022-09-09T11:45:22;2.93;;;1.30;;
15706;SDS011;7953;54.302;10.128;2022-09-09T11:47:53;1.30;;;1.20;;
15706;SDS011;7953;54.302;10.128;2022-09-09T11:50:29;3.00;;;1.03;;
15706;SDS011;7953;54.302;10.128;2022-09-09T11:56:00;3.23;;;1.33;;
15706;SDS011;7953;54.302;10.128;2022-09-09T11:58:30;2.77;;;1.50;;
15706;SDS011;7953;54.302;10.128;2022-09-09T12:01:25;3.33;;;2.00;;
15706;SDS011;7953;54.302;10.128;2022-09-09T12:03:59;4.70;;;1.50;;
15706;SDS011;7953;54.302;10.128;2022-09-09T12:06:41;1.47;;;1.37;;
15706;SDS011;7953;54.302;10.128;2022-09-09T12:09:15;1.80;;;1.20;;
15706;SDS011;7953;54.302;10.128;2022-09-09T12:11:49;1.30;;;1.20;;
15706;SDS011;7953;54.302;10.128;2022-09-09T12:14:21;1.87;;;1.03;;
15706;SDS011;7953;54.302;10.128;2022-09-09T12:16:49;2.00;;;1.20;;
15706;SDS011;7953;54.302;10.128;2022-09-09T12:19:18;2.33;;;1.20;;
15706;SDS011;7953;54.302;10.128;2022-09-09T12:21:49;2.90;;;1.07;;
15706;SDS011;7953;54.302;10.128;2022-09-09T12:24:25;2.13;;;1.00;;
15706;SDS011;7953;54.302;10.128;2022-09-09T12:27:00;1.80;;;1.17;;
15706;SDS011;7953;54.302;10.128;2022-09-09T12:29:36;1.37;;;0.80;;
15706;SDS011;7953;54.302;10.128;2022-09-09T12:32:09;2.00;;;1.03;;
15706;SDS011;7953;54.302;10.128;2022-09-09T12:34:38;3.50;;;1.00;;
15706;SDS011;7953;54.302;10.128;2022-09-09T12:37:12;3.27;;;1.00;;
15706;SDS011;7953;54.302;10.128;2022-09-09T12:39:44;1.60;;;0.70;;
15706;SDS011;7953;54.302;10.128;2022-09-09T12:42:17;1.00;;;0.87;;
15706;SDS011;7953;54.302;10.128;2022-09-09T12:44:54;1.47;;;0.80;;
15706;SDS011;7953;54.302;10.128;2022-09-09T12:47:23;1.63;;;0.90;;
15706;SDS011;7953;54.302;10.128;2022-09-09T12:49:54;3.63;;;1.00;;
15706;SDS011;7953;54.302;10.128;2022-09-09T12:52:23;1.90;;;0.90;;
15706;SDS011;7953;54.302;10.128;2022-09-09T12:54:55;2.13;;;1.00;;
15706;SDS011;7953;54.302;10.128;2022-09-09T12:57:24;1.07;;;0.97;;
15706;SDS011;7953;54.302;10.128;2022-09-09T13:00:04;4.40;;;1.20;;
15706;SDS011;7953;54.302;10.128;2022-09-09T13:02:45;2.17;;;0.90;;
15706;SDS011;7953;54.302;10.128;2022-09-09T13:05:16;1.13;;;0.97;;
15706;SDS011;7953;54.302;10.128;2022-09-09T13:07:45;2.43;;;0.90;;
15706;SDS011;7953;54.302;10.128;2022-09-09T13:10:13;2.50;;;1.40;;
15706;SDS011;7953;54.302;10.128;2022-09-09T13:12:43;2.23;;;1.20;;
15706;SDS011;7953;54.302;10.128;2022-09-09T13:15:16;2.53;;;1.23;;
15706;SDS011;7953;54.302;10.128;2022-09-09T13:17:51;1.23;;;0.87;;
15706;SDS011;7953;54.302;10.128;2022-09-09T13:20:20;1.03;;;0.80;;
15706;SDS011;7953;54.302;10.128;2022-09-09T13:22:48;1.93;;;1.13;;
15706;SDS011;7953;54.302;10.128;2022-09-09T13:25:18;4.03;;;1.30;;
15706;SDS011;7953;54.302;10.128;2022-09-09T13:28:01;2.20;;;1.07;;
15706;SDS011;7953;54.302;10.128;2022-09-09T13:30:30;1.97;;;1.20;;
15706;SDS011;7953;54.302;10.128;2022-09-09T13:33:05;1.53;;;1.20;;
15706;SDS011;7953;54.302;10.128;2022-09-09T13:35:46;4.13;;;1.43;;
15706;SDS011;7953;54.302;10.128;2022-09-09T13:38:16;1.83;;;1.40;;
15706;SDS011;7953;54.302;10.128;2022-09-09T13:40:51;4.50;;;1.40;;
15706;SDS011;7953;54.302;10.128;2022-09-09T13:43:24;5.93;;;1.23;;
15706;SDS011;7953;54.302;10.128;2022-09-09T13:45:52;1.93;;;1.20;;
15706;SDS011;7953;54.302;10.128;2022-09-09T13:48:23;1.77;;;0.97;;
15706;SDS011;7953;54.302;10.128;2022-09-09T13:50:55;2.50;;;1.50;;
15706;SDS011;7953;54.302;10.128;2022-09-09T13:53:23;5.80;;;1.30;;
15706;SDS011;7953;54.302;10.128;2022-09-09T13:55:50;2.83;;;1.43;;
15706;SDS011;7953;54.302;10.128;2022-09-09T13:58:18;2.57;;;1.63;;
15706;SDS011;7953;54.302;10.128;2022-09-09T14:00:49;4.63;;;1.43;;
15706;SDS011;7953;54.302;10.128;2022-09-09T14:03:16;1.47;;;1.20;;
15706;SDS011;7953;54.302;10.128;2022-09-09T14:05:43;2.13;;;1.23;;
15706;SDS011;7953;54.302;10.128;2022-09-09T14:08:14;4.03;;;1.37;;
15706;SDS011;7953;54.302;10.128;2022-09-09T14:10:53;10.90;;;1.47;;
15706;SDS011;7953;54.302;10.128;2022-09-09T14:13:20;3.57;;;1.37;;
15706;SDS011;7953;54.302;10.128;2022-09-09T14:15:49;3.50;;;1.10;;
15706;SDS011;7953;54.302;10.128;2022-09-09T14:18:16;4.00;;;1.47;;
15706;SDS011;7953;54.302;10.128;2022-09-09T14:20:43;1.60;;;1.00;;
15706;SDS011;7953;54.302;10.128;2022-09-09T14:23:11;2.53;;;0.90;;
15706;SDS011;7953;54.302;10.128;2022-09-09T14:25:41;1.90;;;0.97;;
15706;SDS011;7953;54.302;10.128;2022-09-09T14:28:10;1.93;;;1.00;;
15706;SDS011;7953;54.302;10.128;2022-09-09T14:30:38;3.23;;;1.13;;
15706;SDS011;7953;54.302;10.128;2022-09-09T14:33:08;2.27;;;1.10;;
15706;SDS011;7953;54.302;10.128;2022-09-09T14:35:37;4.90;;;1.53;;
15706;SDS011;7953;54.302;10.128;2022-09-09T14:38:06;2.53;;;1.30;;
15706;SDS011;7953;54.302;10.128;2022-09-09T14:40:33;4.07;;;1.10;;
15706;SDS011;7953;54.302;10.128;2022-09-09T14:43:01;1.27;;;0.90;;
15706;SDS011;7953;54.302;10.128;2022-09-09T14:45:28;2.37;;;2.17;;
15706;SDS011;7953;54.302;10.128;2022-09-09T14:47:54;2.40;;;1.30;;
15706;SDS011;7953;54.302;10.128;2022-09-09T14:50:25;0.97;;;0.87;;
15706;SDS011;7953;54.302;10.128;2022-09-09T14:52:55;3.40;;;1.40;;
15706;SDS011;7953;54.302;10.128;2022-09-09T14:55:22;4.67;;;1.30;;
15706;SDS011;7953;54.302;10.128;2022-09-09T14:57:49;4.83;;;1.70;;
15706;SDS011;7953;54.302;10.128;2022-09-09T15:00:15;5.33;;;1.70;;
15706;SDS011;7953;54.302;10.128;2022-09-09T15:02:44;2.67;;;1.33;;